Time;durP1;ratioP1;P1;durP2;ratioP2;P2;SDS_P1;SDS_P2;PMS_P1;PMS_P2;Temp;Humidity;BMP_temperature;BMP_pressure;BME280_temperature;BME280_humidity;BME280_pressure;Samples;Min_cycle;Max_cycle;Signal;HPM_P1;HPM_P2
2022/08/13 00:05:01;;;;;;;0.88;0.52;;;21.10;99.90;;;;;;20511819;28;20050;-39
2022/08/13 00:15:09;;;;;;;1.48;0.80;;;20.90;99.90;;;;;;20511767;28;20118;-39
2022/08/13 00:25:10;;;;;;;1.98;0.82;;;20.70;99.90;;;;;;20507897;28;20208;-39
2022/08/13 00:35:12;;;;;;;1.27;0.80;;;20.50;99.90;;;;;;20517392;28;20066;-39
2022/08/13 00:45:14;;;;;;;1.20;0.60;;;20.40;99.90;;;;;;20511869;28;20169;-39
2022/08/13 00:55:19;;;;;;;1.40;0.60;;;20.20;99.90;;;;;;20520481;28;20094;-39
2022/08/13 01:05:21;;;;;;;1.52;0.88;;;20.00;99.90;;;;;;20506647;28;20114;-39
2022/08/13 01:15:23;;;;;;;1.40;0.60;;;19.80;99.90;;;;;;20520798;28;20209;-39
2022/08/13 01:25:25;;;;;;;1.85;0.70;;;19.60;99.90;;;;;;20490822;28;20604;-39
2022/08/13 01:35:26;;;;;;;0.90;0.60;;;19.50;99.90;;;;;;20496736;28;20058;-39
2022/08/13 01:45:29;;;;;;;1.27;0.60;;;19.30;99.90;;;;;;20499999;28;20369;-39
2022/08/13 01:55:39;;;;;;;1.55;0.80;;;19.10;99.90;;;;;;20503379;28;20597;-39
2022/08/13 02:05:40;;;;;;;2.15;0.65;;;19.00;99.90;;;;;;20483128;28;21174;-39
2022/08/13 02:15:44;;;;;;;1.50;0.93;;;18.90;99.90;;;;;;20500911;28;20501;-39
2022/08/13 02:25:46;;;;;;;2.05;0.80;;;18.70;99.90;;;;;;20504539;28;20168;-39
2022/08/13 02:35:47;;;;;;;2.08;0.63;;;18.70;99.90;;;;;;20515750;28;20421;-39
2022/08/13 02:45:49;;;;;;;1.45;0.75;;;18.50;99.90;;;;;;20518487;28;20039;-39
2022/08/13 02:55:51;;;;;;;1.67;0.70;;;18.40;99.90;;;;;;20524205;28;20042;-39
2022/08/13 03:05:53;;;;;;;0.93;0.30;;;18.30;99.90;;;;;;20510885;28;20594;-39
2022/08/13 03:15:56;;;;;;;2.13;0.68;;;18.20;99.90;;;;;;20509618;28;20042;-39
2022/08/13 03:25:57;;;;;;;1.27;0.70;;;18.10;99.90;;;;;;20499570;28;20528;-39
2022/08/13 03:35:58;;;;;;;5.75;0.95;;;18.00;99.90;;;;;;20458842;28;20059;-39
2022/08/13 03:45:59;;;;;;;2.70;1.00;;;18.00;99.90;;;;;;20452184;28;20473;-39
2022/08/13 03:56:01;;;;;;;1.70;0.77;;;17.90;99.90;;;;;;20461767;28;20546;-39
2022/08/13 04:06:09;;;;;;;1.58;0.60;;;17.90;99.90;;;;;;20475360;28;20514;-39
2022/08/13 04:16:16;;;;;;;3.22;1.90;;;17.80;99.90;;;;;;20522310;28;20121;-39
2022/08/13 04:26:23;;;;;;;1.83;0.97;;;17.70;99.90;;;;;;20500172;28;20173;-39
2022/08/13 04:36:24;;;;;;;1.33;0.60;;;17.60;99.90;;;;;;20518345;28;21910;-39
2022/08/13 04:46:25;;;;;;;1.60;0.93;;;17.60;99.90;;;;;;20484575;28;20043;-39
2022/08/13 04:56:27;;;;;;;1.73;0.70;;;17.70;99.90;;;;;;20498534;28;20106;-39
2022/08/13 05:06:28;;;;;;;1.00;0.45;;;17.80;99.90;;;;;;20501583;28;20125;-39
2022/08/13 05:16:29;;;;;;;1.08;0.60;;;17.90;99.90;;;;;;20521637;28;20205;-39
2022/08/13 05:26:31;;;;;;;1.38;0.60;;;18.20;99.90;;;;;;20506443;28;20734;-39
2022/08/13 05:36:33;;;;;;;1.63;0.68;;;18.50;99.90;;;;;;20512033;28;20594;-39
2022/08/13 05:46:34;;;;;;;2.63;0.50;;;18.80;99.90;;;;;;20508892;28;20136;-39
2022/08/13 05:56:36;;;;;;;1.15;0.50;;;19.20;99.90;;;;;;20490026;28;20486;-39
2022/08/13 06:06:38;;;;;;;1.27;0.65;;;19.80;99.90;;;;;;20493255;28;20523;-39
2022/08/13 06:16:39;;;;;;;0.88;0.45;;;21.30;99.90;;;;;;20507161;28;20159;-39
2022/08/13 06:26:40;;;;;;;1.00;0.60;;;20.90;99.90;;;;;;20504705;28;20929;-39
2022/08/13 06:36:41;;;;;;;1.15;0.57;;;21.10;99.90;;;;;;20499809;28;24856;-39
2022/08/13 06:46:43;;;;;;;3.05;1.13;;;21.30;99.90;;;;;;20487811;28;20143;-39
2022/08/13 06:56:45;;;;;;;1.05;0.50;;;21.80;99.90;;;;;;20483503;28;20490;-39
2022/08/13 07:06:49;;;;;;;1.58;0.57;;;22.20;99.90;;;;;;20505890;28;20200;-39
2022/08/13 07:16:50;;;;;;;1.02;0.40;;;22.60;99.90;;;;;;20521658;28;20058;-39
2022/08/13 07:26:51;;;;;;;1.75;0.60;;;22.90;99.90;;;;;;20527005;28;20575;-39
2022/08/13 07:36:54;;;;;;;0.90;0.40;;;23.20;99.90;;;;;;20507845;28;20297;-39
2022/08/13 07:46:57;;;;;;;1.48;0.40;;;23.50;99.50;;;;;;20492927;28;20102;-39
2022/08/13 07:56:59;;;;;;;1.10;0.60;;;23.80;98.40;;;;;;20511717;28;20516;-39
2022/08/13 08:07:02;;;;;;;0.98;0.40;;;24.10;97.60;;;;;;20481433;28;20042;-39
2022/08/13 08:17:06;;;;;;;0.90;0.43;;;24.50;96.20;;;;;;20492331;28;20502;-39
2022/08/13 08:27:11;;;;;;;1.27;0.63;;;25.00;95.30;;;;;;20500434;28;20118;-39
2022/08/13 08:47:35;;;;;;;1.63;0.73;;;25.90;94.10;;;;;;20498250;28;21893;-39
2022/08/13 08:57:37;;;;;;;1.05;0.50;;;26.40;93.00;;;;;;20452648;28;20043;-40
2022/08/13 09:07:41;;;;;;;1.33;0.80;;;26.70;92.60;;;;;;20472150;28;20041;-39
2022/08/13 09:17:43;;;;;;;0.80;0.30;;;27.00;92.30;;;;;;20504997;28;20402;-39
2022/08/13 09:27:44;;;;;;;2.17;0.55;;;27.40;92.00;;;;;;20485543;28;20676;-39
2022/08/13 09:37:48;;;;;;;0.80;0.40;;;27.90;91.00;;;;;;20484597;28;20550;-40
2022/08/13 09:47:49;;;;;;;1.90;1.23;;;28.40;91.20;;;;;;20490186;28;20107;-39
2022/08/13 09:57:52;;;;;;;15.25;0.60;;;28.80;90.10;;;;;;20496288;28;20065;-40
2022/08/13 10:07:53;;;;;;;1.20;0.63;;;29.50;87.20;;;;;;20439208;28;20105;-40
2022/08/13 10:17:59;;;;;;;3.10;0.60;;;30.10;84.80;;;;;;20493473;28;20371;-40
2022/08/13 10:28:12;;;;;;;1.55;0.35;;;30.30;84.20;;;;;;20495073;28;20126;-40
2022/08/13 10:38:15;;;;;;;0.85;0.38;;;30.40;87.70;;;;;;20520597;28;22028;-40
2022/08/13 10:48:17;;;;;;;1.70;0.50;;;30.60;85.20;;;;;;20543085;28;20522;-40
2022/08/13 10:58:18;;;;;;;1.27;0.52;;;30.80;81.20;;;;;;20492281;28;20137;-40
2022/08/13 11:08:19;;;;;;;0.95;0.57;;;31.20;81.70;;;;;;20477205;28;20038;-40
2022/08/13 11:18:20;;;;;;;0.47;0.28;;;31.60;78.50;;;;;;20513099;28;20601;-39
2022/08/13 11:28:22;;;;;;;0.63;0.30;;;31.80;76.60;;;;;;20522581;28;20611;-40
2022/08/13 11:38:23;;;;;;;0.55;0.20;;;32.20;77.30;;;;;;20543590;28;20526;-40
2022/08/13 11:48:25;;;;;;;0.98;0.35;;;33.20;77.60;;;;;;20547710;28;20043;-40
2022/08/13 11:58:26;;;;;;;1.30;0.30;;;33.30;71.70;;;;;;20540271;28;20053;-40
2022/08/13 12:08:27;;;;;;;0.60;0.32;;;33.00;70.90;;;;;;20528348;28;20039;-40
2022/08/13 12:18:29;;;;;;;0.70;0.30;;;33.40;76.10;;;;;;20526765;28;20107;-40
2022/08/13 12:28:30;;;;;;;0.77;0.30;;;32.80;72.80;;;;;;20532620;28;20195;-40
2022/08/13 12:38:31;;;;;;;0.73;0.30;;;33.10;70.80;;;;;;20520629;28;20047;-40
2022/08/13 12:48:32;;;;;;;0.75;0.32;;;33.40;68.60;;;;;;20525097;28;20027;-40
2022/08/13 12:58:33;;;;;;;1.17;0.38;;;34.30;69.30;;;;;;20540240;28;20110;-40
2022/08/13 13:08:34;;;;;;;1.02;0.40;;;34.80;66.80;;;;;;20558218;28;20493;-40
2022/08/13 13:18:35;;;;;;;0.85;0.50;;;34.90;66.90;;;;;;20579250;28;20563;-40
2022/08/13 13:28:37;;;;;;;0.68;0.30;;;34.90;64.60;;;;;;20558624;28;20054;-41
2022/08/13 13:38:40;;;;;;;0.52;0.30;;;35.00;65.60;;;;;;20561998;28;20047;-41
2022/08/13 13:48:41;;;;;;;0.55;0.30;;;35.70;64.00;;;;;;20554218;28;20087;-41
2022/08/13 13:58:43;;;;;;;1.77;1.05;;;36.00;64.60;;;;;;20540784;28;20043;-41
2022/08/13 14:08:44;;;;;;;0.80;0.32;;;35.70;64.00;;;;;;20541288;28;20353;-40
2022/08/13 14:18:46;;;;;;;0.80;0.30;;;35.10;63.60;;;;;;20492368;28;20038;-41
2022/08/13 14:28:48;;;;;;;4.53;1.35;;;34.30;63.10;;;;;;20527011;28;20094;-40
2022/08/13 14:38:49;;;;;;;0.80;0.40;;;33.70;62.50;;;;;;20546046;28;20061;-40
2022/08/13 14:48:50;;;;;;;0.98;0.30;;;33.00;62.80;;;;;;20553599;28;20038;-41
2022/08/13 14:58:51;;;;;;;1.15;0.47;;;32.90;63.70;;;;;;20545984;28;20054;-40
2022/08/13 15:08:52;;;;;;;0.52;0.30;;;32.70;64.10;;;;;;20533651;28;20070;-41
2022/08/13 15:18:56;;;;;;;1.52;0.40;;;32.40;65.20;;;;;;20545523;28;20112;-40
2022/08/13 15:28:59;;;;;;;0.77;0.57;;;32.10;64.70;;;;;;20540786;28;20070;-40
2022/08/13 15:39:00;;;;;;;1.08;0.50;;;32.20;63.40;;;;;;20542223;28;20076;-40
2022/08/13 15:49:02;;;;;;;1.05;0.40;;;32.00;63.90;;;;;;20540540;28;20054;-40
2022/08/13 15:59:04;;;;;;;1.45;0.43;;;31.90;64.60;;;;;;20538872;28;20656;-40
2022/08/13 16:09:05;;;;;;;1.10;0.40;;;31.80;66.00;;;;;;20534983;28;20130;-40
2022/08/13 16:19:08;;;;;;;3.20;1.52;;;31.60;65.40;;;;;;20528198;28;20141;-40
2022/08/13 16:29:09;;;;;;;0.70;0.30;;;31.40;64.40;;;;;;20552698;28;20117;-41
2022/08/13 16:39:10;;;;;;;6.00;1.75;;;31.20;64.70;;;;;;20574534;28;20142;-40
2022/08/13 16:49:11;;;;;;;1.02;0.52;;;31.00;65.20;;;;;;20588214;28;20039;-40
2022/08/13 16:59:12;;;;;;;0.68;0.38;;;30.70;64.40;;;;;;20587206;28;20383;-40
2022/08/13 17:09:13;;;;;;;1.52;0.60;;;30.60;64.10;;;;;;20543429;28;20038;-40
2022/08/13 17:19:17;;;;;;;1.83;0.52;;;30.30;65.00;;;;;;20528044;28;20062;-40
2022/08/13 17:29:21;;;;;;;1.20;0.40;;;30.30;64.70;;;;;;20535664;28;20086;-41
2022/08/13 17:39:25;;;;;;;0.75;0.40;;;30.30;65.00;;;;;;20531880;28;20129;-41
2022/08/13 17:49:26;;;;;;;0.95;0.50;;;30.00;66.30;;;;;;20524316;28;20089;-40
2022/08/13 17:59:28;;;;;;;3.45;2.47;;;29.90;64.10;;;;;;20534355;28;20515;-40
2022/08/13 18:09:29;;;;;;;1.75;0.93;;;29.80;65.80;;;;;;20537573;28;20456;-40
2022/08/13 18:19:30;;;;;;;0.82;0.50;;;29.60;69.00;;;;;;20552796;28;20038;-40
2022/08/13 18:29:34;;;;;;;5.53;3.30;;;29.20;70.40;;;;;;20546400;28;20089;-40
2022/08/13 18:39:35;;;;;;;25.70;14.40;;;28.80;75.00;;;;;;20543428;28;20578;-40
2022/08/13 18:49:36;;;;;;;10.63;5.38;;;28.20;80.70;;;;;;20561821;28;20387;-40
2022/08/13 18:59:37;;;;;;;2.95;0.80;;;27.70;83.00;;;;;;20540772;28;20038;-40
2022/08/13 19:09:38;;;;;;;1.05;0.50;;;27.30;84.80;;;;;;20555247;28;20517;-40
2022/08/13 19:19:40;;;;;;;1.17;0.55;;;26.70;83.50;;;;;;20564429;28;20511;-40
2022/08/13 19:29:41;;;;;;;1.33;0.52;;;26.20;86.00;;;;;;20562505;28;20462;-40
2022/08/13 19:39:44;;;;;;;1.98;0.80;;;26.00;90.90;;;;;;20568757;28;20077;-40
2022/08/13 19:49:46;;;;;;;1.70;0.93;;;25.70;91.40;;;;;;20547389;28;20552;-40
2022/08/13 19:59:47;;;;;;;1.67;0.80;;;25.40;93.40;;;;;;20545653;28;20035;-40
2022/08/13 20:09:48;;;;;;;0.95;0.55;;;25.10;93.50;;;;;;20559450;28;20045;-40
2022/08/13 20:19:49;;;;;;;1.45;0.90;;;24.90;95.20;;;;;;20525682;28;20047;-40
2022/08/13 20:29:50;;;;;;;1.25;0.68;;;24.60;96.80;;;;;;20516889;28;20114;-39
2022/08/13 20:39:52;;;;;;;1.15;0.70;;;24.50;98.20;;;;;;20519402;28;20046;-40
2022/08/13 20:49:53;;;;;;;1.30;0.50;;;24.30;99.30;;;;;;20528612;28;20062;-40
2022/08/13 20:59:55;;;;;;;1.77;0.68;;;24.00;99.40;;;;;;20515013;28;20079;-40
2022/08/13 21:09:56;;;;;;;2.22;0.70;;;23.70;99.90;;;;;;20508527;28;20102;-40
2022/08/13 21:19:57;;;;;;;1.30;0.70;;;23.50;99.90;;;;;;20508373;28;20134;-40
2022/08/13 21:30:01;;;;;;;2.88;0.90;;;23.30;99.90;;;;;;20517037;28;20251;-40
2022/08/13 21:40:03;;;;;;;1.38;0.63;;;23.10;99.90;;;;;;20513889;28;20306;-40
2022/08/13 21:50:05;;;;;;;2.10;0.80;;;23.00;99.90;;;;;;20527488;28;20952;-39
2022/08/13 22:00:16;;;;;;;2.47;0.88;;;22.80;99.90;;;;;;20496620;28;20534;-39
2022/08/13 22:10:19;;;;;;;1.35;0.70;;;22.60;99.90;;;;;;20483891;28;20133;-39
2022/08/13 22:20:24;;;;;;;1.80;0.73;;;22.50;99.90;;;;;;20489017;28;20133;-39
2022/08/13 22:40:45;;;;;;;1.55;0.90;;;22.30;99.90;;;;;;20523798;28;20439;-39
2022/08/13 22:50:46;;;;;;;2.75;1.23;;;22.20;99.90;;;;;;20519664;28;20252;-39
2022/08/13 23:00:48;;;;;;;1.88;0.95;;;22.10;99.90;;;;;;20549771;28;20035;-40
2022/08/13 23:10:51;;;;;;;2.08;1.13;;;21.90;99.90;;;;;;20541751;28;20062;-40
2022/08/13 23:20:52;;;;;;;3.03;1.02;;;21.80;99.90;;;;;;20532955;28;20212;-40
2022/08/13 23:30:53;;;;;;;3.67;1.08;;;21.70;99.90;;;;;;20560368;28;20034;-39
2022/08/13 23:40:55;;;;;;;2.83;0.73;;;21.60;99.90;;;;;;20556624;28;20059;-39
2022/08/13 23:50:56;;;;;;;2.22;0.93;;;21.40;99.90;;;;;;20560892;28;20345;-39
